sensor_id;sensor_type;location;lat;lon;timestamp;temperature;humidity
9861;DHT22;4969;52.304;4.968;2024-03-29T00:00:02;17.04;54.82
9861;DHT22;4969;52.304;4.968;2024-03-29T00:02:28;17.41;54.91
9861;DHT22;4969;52.304;4.968;2024-03-29T00:04:53;17.96;53.03
9861;DHT22;4969;52.304;4.968;2024-03-29T00:07:20;18.25;53.45
9861;DHT22;4969;52.304;4.968;2024-03-29T00:09:46;18.30;53.99
9861;DHT22;4969;52.304;4.968;2024-03-29T00:12:12;18.23;54.16
9861;DHT22;4969;52.304;4.968;2024-03-29T00:14:37;17.75;53.63
9861;DHT22;4969;52.304;4.968;2024-03-29T00:17:03;17.95;54.85
9861;DHT22;4969;52.304;4.968;2024-03-29T00:19:29;17.69;53.02
9861;DHT22;4969;52.304;4.968;2024-03-29T00:21:54;17.72;53.52
9861;DHT22;4969;52.304;4.968;2024-03-29T00:24:21;17.76;55.19
9861;DHT22;4969;52.304;4.968;2024-03-29T00:26:47;17.87;52.86
9861;DHT22;4969;52.304;4.968;2024-03-29T00:29:12;17.93;54.91
9861;DHT22;4969;52.304;4.968;2024-03-29T00:31:38;17.78;49.36
9861;DHT22;4969;52.304;4.968;2024-03-29T00:34:03;17.35;52.50
9861;DHT22;4969;52.304;4.968;2024-03-29T00:36:29;17.68;54.91
9861;DHT22;4969;52.304;4.968;2024-03-29T00:38:55;17.83;54.84
9861;DHT22;4969;52.304;4.968;2024-03-29T00:41:22;17.65;55.34
9861;DHT22;4969;52.304;4.968;2024-03-29T00:43:47;17.48;53.48
9861;DHT22;4969;52.304;4.968;2024-03-29T00:46:13;17.83;49.43
9861;DHT22;4969;52.304;4.968;2024-03-29T00:48:39;17.90;54.98
9861;DHT22;4969;52.304;4.968;2024-03-29T00:51:04;18.07;54.95
9861;DHT22;4969;52.304;4.968;2024-03-29T00:53:30;17.89;55.83
9861;DHT22;4969;52.304;4.968;2024-03-29T00:55:55;17.97;51.11
9861;DHT22;4969;52.304;4.968;2024-03-29T00:58:22;17.86;54.26
9861;DHT22;4969;52.304;4.968;2024-03-29T01:00:48;17.82;52.77
9861;DHT22;4969;52.304;4.968;2024-03-29T01:03:13;17.40;55.51
9861;DHT22;4969;52.304;4.968;2024-03-29T01:05:39;17.74;54.36
9861;DHT22;4969;52.304;4.968;2024-03-29T01:08:05;17.30;53.60
9861;DHT22;4969;52.304;4.968;2024-03-29T01:10:31;17.55;51.75
9861;DHT22;4969;52.304;4.968;2024-03-29T01:12:57;18.07;54.73
9861;DHT22;4969;52.304;4.968;2024-03-29T01:15:24;17.93;54.70
9861;DHT22;4969;52.304;4.968;2024-03-29T01:17:49;17.96;53.02
9861;DHT22;4969;52.304;4.968;2024-03-29T01:20:15;17.90;49.82
9861;DHT22;4969;52.304;4.968;2024-03-29T01:22:40;17.74;48.95
9861;DHT22;4969;52.304;4.968;2024-03-29T01:25:07;17.57;56.23
9861;DHT22;4969;52.304;4.968;2024-03-29T01:27:33;17.34;51.86
9861;DHT22;4969;52.304;4.968;2024-03-29T01:29:58;17.48;56.00
9861;DHT22;4969;52.304;4.968;2024-03-29T01:32:25;18.09;54.23
9861;DHT22;4969;52.304;4.968;2024-03-29T01:34:51;18.18;48.63
9861;DHT22;4969;52.304;4.968;2024-03-29T01:37:16;18.18;54.18
9861;DHT22;4969;52.304;4.968;2024-03-29T01:39:42;17.71;55.13
9861;DHT22;4969;52.304;4.968;2024-03-29T01:42:08;18.07;53.03
9861;DHT22;4969;52.304;4.968;2024-03-29T01:44:33;18.04;54.62
9861;DHT22;4969;52.304;4.968;2024-03-29T01:47:00;18.10;54.02
9861;DHT22;4969;52.304;4.968;2024-03-29T01:49:29;17.79;54.18
9861;DHT22;4969;52.304;4.968;2024-03-29T01:51:56;18.24;53.64
9861;DHT22;4969;52.304;4.968;2024-03-29T01:54:22;17.12;54.47
9861;DHT22;4969;52.304;4.968;2024-03-29T01:56:49;17.95;54.37
9861;DHT22;4969;52.304;4.968;2024-03-29T01:59:16;17.97;52.62
9861;DHT22;4969;52.304;4.968;2024-03-29T02:01:45;17.81;53.61
9861;DHT22;4969;52.304;4.968;2024-03-29T02:04:12;16.96;56.09
9861;DHT22;4969;52.304;4.968;2024-03-29T02:06:40;17.68;55.07
9861;DHT22;4969;52.304;4.968;2024-03-29T02:09:06;17.82;54.42
9861;DHT22;4969;52.304;4.968;2024-03-29T02:11:33;18.06;51.29
9861;DHT22;4969;52.304;4.968;2024-03-29T02:14:00;17.68;54.20
9861;DHT22;4969;52.304;4.968;2024-03-29T02:16:27;18.18;53.64
9861;DHT22;4969;52.304;4.968;2024-03-29T02:18:53;17.59;54.25
9861;DHT22;4969;52.304;4.968;2024-03-29T02:21:20;17.37;55.85
9861;DHT22;4969;52.304;4.968;2024-03-29T02:24:00;18.12;54.07
9861;DHT22;4969;52.304;4.968;2024-03-29T02:26:26;17.75;53.56
9861;DHT22;4969;52.304;4.968;2024-03-29T02:28:56;18.20;53.68
9861;DHT22;4969;52.304;4.968;2024-03-29T02:31:23;17.93;53.51
9861;DHT22;4969;52.304;4.968;2024-03-29T02:33:50;17.55;50.52
9861;DHT22;4969;52.304;4.968;2024-03-29T02:36:16;17.93;51.44
9861;DHT22;4969;52.304;4.968;2024-03-29T02:38:42;18.04;53.62
9861;DHT22;4969;52.304;4.968;2024-03-29T02:41:10;17.81;54.02
9861;DHT22;4969;52.304;4.968;2024-03-29T02:43:37;17.95;53.70
9861;DHT22;4969;52.304;4.968;2024-03-29T02:46:03;18.03;53.58
9861;DHT22;4969;52.304;4.968;2024-03-29T02:48:29;18.10;52.53
9861;DHT22;4969;52.304;4.968;2024-03-29T02:50:55;18.09;53.79
9861;DHT22;4969;52.304;4.968;2024-03-29T02:53:21;18.21;53.15
9861;DHT22;4969;52.304;4.968;2024-03-29T02:55:47;17.57;52.23
9861;DHT22;4969;52.304;4.968;2024-03-29T02:58:15;18.00;53.68
9861;DHT22;4969;52.304;4.968;2024-03-29T03:00:40;17.89;53.86
9861;DHT22;4969;52.304;4.968;2024-03-29T03:03:07;17.67;51.39
9861;DHT22;4969;52.304;4.968;2024-03-29T03:05:32;17.07;54.28
9861;DHT22;4969;52.304;4.968;2024-03-29T03:07:59;17.57;54.19
9861;DHT22;4969;52.304;4.968;2024-03-29T03:10:46;17.64;52.65
9861;DHT22;4969;52.304;4.968;2024-03-29T03:13:28;17.68;54.06
9861;DHT22;4969;52.304;4.968;2024-03-29T03:15:55;17.51;49.25
9861;DHT22;4969;52.304;4.968;2024-03-29T03:18:21;17.00;52.79
9861;DHT22;4969;52.304;4.968;2024-03-29T03:20:50;17.09;49.20
9861;DHT22;4969;52.304;4.968;2024-03-29T03:23:17;17.59;54.24
9861;DHT22;4969;52.304;4.968;2024-03-29T03:25:43;17.30;55.07
9861;DHT22;4969;52.304;4.968;2024-03-29T03:28:09;17.67;54.71
9861;DHT22;4969;52.304;4.968;2024-03-29T03:30:39;17.20;55.76
9861;DHT22;4969;52.304;4.968;2024-03-29T03:33:04;17.44;50.42
9861;DHT22;4969;52.304;4.968;2024-03-29T03:35:31;17.85;53.83
9861;DHT22;4969;52.304;4.968;2024-03-29T03:37:56;17.37;54.38
9861;DHT22;4969;52.304;4.968;2024-03-29T03:40:23;17.17;52.33
9861;DHT22;4969;52.304;4.968;2024-03-29T03:42:49;17.97;53.77
9861;DHT22;4969;52.304;4.968;2024-03-29T03:45:15;18.00;53.58
9861;DHT22;4969;52.304;4.968;2024-03-29T03:47:42;17.96;53.07
9861;DHT22;4969;52.304;4.968;2024-03-29T03:50:09;17.92;51.67
9861;DHT22;4969;52.304;4.968;2024-03-29T03:52:34;17.74;50.49
9861;DHT22;4969;52.304;4.968;2024-03-29T03:55:01;17.49;54.41
9861;DHT22;4969;52.304;4.968;2024-03-29T03:57:26;18.04;53.27
9861;DHT22;4969;52.304;4.968;2024-03-29T03:59:53;17.78;53.25
9861;DHT22;4969;52.304;4.968;2024-03-29T04:02:18;17.74;52.73
9861;DHT22;4969;52.304;4.968;2024-03-29T04:04:48;17.65;53.82
9861;DHT22;4969;52.304;4.968;2024-03-29T04:07:14;17.17;55.18
9861;DHT22;4969;52.304;4.968;2024-03-29T04:09:40;17.64;54.32
9861;DHT22;4969;52.304;4.968;2024-03-29T04:12:07;17.75;53.91
9861;DHT22;4969;52.304;4.968;2024-03-29T04:14:32;17.57;53.58
9861;DHT22;4969;52.304;4.968;2024-03-29T04:16:59;17.97;53.55
9861;DHT22;4969;52.304;4.968;2024-03-29T04:19:24;17.65;52.20
9861;DHT22;4969;52.304;4.968;2024-03-29T04:21:53;17.20;50.50
9861;DHT22;4969;52.304;4.968;2024-03-29T04:24:19;17.40;51.00
9861;DHT22;4969;52.304;4.968;2024-03-29T04:26:45;17.40;53.78
9861;DHT22;4969;52.304;4.968;2024-03-29T04:29:12;17.31;53.15
9861;DHT22;4969;52.304;4.968;2024-03-29T04:31:39;17.68;53.93
9861;DHT22;4969;52.304;4.968;2024-03-29T04:34:05;18.06;53.43
9861;DHT22;4969;52.304;4.968;2024-03-29T04:36:31;17.92;53.59
9861;DHT22;4969;52.304;4.968;2024-03-29T04:38:58;17.67;48.67
9861;DHT22;4969;52.304;4.968;2024-03-29T04:41:25;17.69;54.37
9861;DHT22;4969;52.304;4.968;2024-03-29T04:43:51;17.51;54.42
9861;DHT22;4969;52.304;4.968;2024-03-29T04:46:18;17.26;53.23
9861;DHT22;4969;52.304;4.968;2024-03-29T04:48:44;17.90;53.16
9861;DHT22;4969;52.304;4.968;2024-03-29T04:51:12;17.92;52.97
9861;DHT22;4969;52.304;4.968;2024-03-29T04:53:39;17.59;53.20
9861;DHT22;4969;52.304;4.968;2024-03-29T04:56:07;17.71;54.09
9861;DHT22;4969;52.304;4.968;2024-03-29T04:58:34;17.38;52.02
9861;DHT22;4969;52.304;4.968;2024-03-29T05:01:00;17.21;52.43
9861;DHT22;4969;52.304;4.968;2024-03-29T05:03:27;17.24;54.69
9861;DHT22;4969;52.304;4.968;2024-03-29T05:05:53;17.51;54.80
9861;DHT22;4969;52.304;4.968;2024-03-29T05:08:20;17.78;53.98
9861;DHT22;4969;52.304;4.968;2024-03-29T05:10:47;17.87;48.48
9861;DHT22;4969;52.304;4.968;2024-03-29T05:13:16;17.92;53.57
9861;DHT22;4969;52.304;4.968;2024-03-29T05:15:43;17.42;51.78
9861;DHT22;4969;52.304;4.968;2024-03-29T05:18:10;16.95;53.00
9861;DHT22;4969;52.304;4.968;2024-03-29T05:20:36;17.40;54.76
9861;DHT22;4969;52.304;4.968;2024-03-29T05:23:05;17.58;53.54
9861;DHT22;4969;52.304;4.968;2024-03-29T05:25:31;17.55;54.01
9861;DHT22;4969;52.304;4.968;2024-03-29T05:27:58;17.72;53.96
9861;DHT22;4969;52.304;4.968;2024-03-29T05:30:26;17.83;53.69
9861;DHT22;4969;52.304;4.968;2024-03-29T05:32:54;17.45;53.07
9861;DHT22;4969;52.304;4.968;2024-03-29T05:35:20;17.30;52.77
9861;DHT22;4969;52.304;4.968;2024-03-29T05:37:47;17.09;49.85
9861;DHT22;4969;52.304;4.968;2024-03-29T05:40:16;16.99;52.50
9861;DHT22;4969;52.304;4.968;2024-03-29T05:42:43;16.96;48.25
9861;DHT22;4969;52.304;4.968;2024-03-29T05:45:27;16.96;53.34
9861;DHT22;4969;52.304;4.968;2024-03-29T05:47:54;17.30;52.25
9861;DHT22;4969;52.304;4.968;2024-03-29T05:50:22;17.00;52.84
9861;DHT22;4969;52.304;4.968;2024-03-29T05:52:48;17.27;55.18
9861;DHT22;4969;52.304;4.968;2024-03-29T05:55:15;17.78;53.03
9861;DHT22;4969;52.304;4.968;2024-03-29T05:57:42;17.59;53.30
9861;DHT22;4969;52.304;4.968;2024-03-29T06:00:11;17.71;53.08
9861;DHT22;4969;52.304;4.968;2024-03-29T06:02:40;17.17;55.13
9861;DHT22;4969;52.304;4.968;2024-03-29T06:05:08;17.03;54.29
9861;DHT22;4969;52.304;4.968;2024-03-29T06:07:35;17.41;52.66
9861;DHT22;4969;52.304;4.968;2024-03-29T06:10:02;17.55;53.94
9861;DHT22;4969;52.304;4.968;2024-03-29T06:12:30;17.09;51.49
9861;DHT22;4969;52.304;4.968;2024-03-29T06:14:56;16.65;54.50
9861;DHT22;4969;52.304;4.968;2024-03-29T06:17:42;16.95;53.63
9861;DHT22;4969;52.304;4.968;2024-03-29T06:20:09;16.93;54.82
9861;DHT22;4969;52.304;4.968;2024-03-29T06:22:36;17.09;54.42
9861;DHT22;4969;52.304;4.968;2024-03-29T06:25:03;16.36;55.32
9861;DHT22;4969;52.304;4.968;2024-03-29T06:27:31;17.31;54.84
9861;DHT22;4969;52.304;4.968;2024-03-29T06:29:57;17.40;55.05
9861;DHT22;4969;52.304;4.968;2024-03-29T06:32:24;17.14;54.37
9861;DHT22;4969;52.304;4.968;2024-03-29T06:34:52;17.40;54.80
9861;DHT22;4969;52.304;4.968;2024-03-29T06:37:18;17.14;55.32
9861;DHT22;4969;52.304;4.968;2024-03-29T06:39:47;16.65;55.53
9861;DHT22;4969;52.304;4.968;2024-03-29T06:42:13;17.04;54.69
9861;DHT22;4969;52.304;4.968;2024-03-29T06:44:40;17.54;53.92
9861;DHT22;4969;52.304;4.968;2024-03-29T06:47:07;17.10;52.70
9861;DHT22;4969;52.304;4.968;2024-03-29T06:49:34;17.48;54.60
9861;DHT22;4969;52.304;4.968;2024-03-29T06:52:02;17.12;53.44
9861;DHT22;4969;52.304;4.968;2024-03-29T06:54:28;16.20;54.91
9861;DHT22;4969;52.304;4.968;2024-03-29T06:56:55;17.13;54.52
9861;DHT22;4969;52.304;4.968;2024-03-29T06:59:22;17.14;55.54
9861;DHT22;4969;52.304;4.968;2024-03-29T07:01:49;17.78;54.01
9861;DHT22;4969;52.304;4.968;2024-03-29T07:04:17;17.51;54.87
9861;DHT22;4969;52.304;4.968;2024-03-29T07:06:44;17.69;53.05
9861;DHT22;4969;52.304;4.968;2024-03-29T07:09:14;17.81;54.06
9861;DHT22;4969;52.304;4.968;2024-03-29T07:11:40;17.97;53.36
9861;DHT22;4969;52.304;4.968;2024-03-29T07:14:07;17.96;53.56
9861;DHT22;4969;52.304;4.968;2024-03-29T07:16:33;17.87;53.54
9861;DHT22;4969;52.304;4.968;2024-03-29T07:19:00;17.58;52.87
9861;DHT22;4969;52.304;4.968;2024-03-29T07:21:28;17.69;52.16
9861;DHT22;4969;52.304;4.968;2024-03-29T07:23:54;17.13;55.38
9861;DHT22;4969;52.304;4.968;2024-03-29T07:26:22;17.78;54.16
9861;DHT22;4969;52.304;4.968;2024-03-29T07:28:49;17.95;53.49
9861;DHT22;4969;52.304;4.968;2024-03-29T07:31:15;17.47;53.15
9861;DHT22;4969;52.304;4.968;2024-03-29T07:33:42;17.62;53.86
9861;DHT22;4969;52.304;4.968;2024-03-29T07:36:09;17.49;54.36
9861;DHT22;4969;52.304;4.968;2024-03-29T07:38:36;17.59;54.46
9861;DHT22;4969;52.304;4.968;2024-03-29T07:41:03;17.57;54.42
9861;DHT22;4969;52.304;4.968;2024-03-29T07:43:38;17.34;53.72
9861;DHT22;4969;52.304;4.968;2024-03-29T07:46:05;17.61;55.09
9861;DHT22;4969;52.304;4.968;2024-03-29T07:48:34;18.10;53.46
9861;DHT22;4969;52.304;4.968;2024-03-29T07:51:01;17.85;53.82
9861;DHT22;4969;52.304;4.968;2024-03-29T07:53:27;17.82;53.61
9861;DHT22;4969;52.304;4.968;2024-03-29T07:55:54;17.86;53.79
9861;DHT22;4969;52.304;4.968;2024-03-29T07:58:21;17.72;52.60
9861;DHT22;4969;52.304;4.968;2024-03-29T08:00:49;17.65;54.50
9861;DHT22;4969;52.304;4.968;2024-03-29T08:03:15;17.62;54.36
9861;DHT22;4969;52.304;4.968;2024-03-29T08:05:42;17.37;54.94
9861;DHT22;4969;52.304;4.968;2024-03-29T08:08:08;17.87;52.81
9861;DHT22;4969;52.304;4.968;2024-03-29T08:10:35;17.93;54.19
9861;DHT22;4969;52.304;4.968;2024-03-29T08:13:01;17.40;53.08
9861;DHT22;4969;52.304;4.968;2024-03-29T08:15:28;17.64;53.58
9861;DHT22;4969;52.304;4.968;2024-03-29T08:17:55;17.72;54.17
9861;DHT22;4969;52.304;4.968;2024-03-29T08:20:22;17.10;54.25
9861;DHT22;4969;52.304;4.968;2024-03-29T08:22:54;16.75;55.43
9861;DHT22;4969;52.304;4.968;2024-03-29T08:25:23;16.88;53.89
9861;DHT22;4969;52.304;4.968;2024-03-29T08:27:52;17.32;55.56
9861;DHT22;4969;52.304;4.968;2024-03-29T08:30:23;17.65;52.11
9861;DHT22;4969;52.304;4.968;2024-03-29T08:32:50;17.32;54.68
9861;DHT22;4969;52.304;4.968;2024-03-29T08:35:19;17.67;53.21
9861;DHT22;4969;52.304;4.968;2024-03-29T08:37:45;17.55;51.64
9861;DHT22;4969;52.304;4.968;2024-03-29T08:40:12;17.23;54.90
9861;DHT22;4969;52.304;4.968;2024-03-29T08:42:39;17.35;55.77
9861;DHT22;4969;52.304;4.968;2024-03-29T08:45:05;17.41;54.05
9861;DHT22;4969;52.304;4.968;2024-03-29T08:47:33;16.92;54.21
9861;DHT22;4969;52.304;4.968;2024-03-29T08:50:00;17.07;56.03
9861;DHT22;4969;52.304;4.968;2024-03-29T08:52:30;17.17;56.21
9861;DHT22;4969;52.304;4.968;2024-03-29T08:54:57;17.00;54.84
9861;DHT22;4969;52.304;4.968;2024-03-29T08:57:23;17.14;54.34
9861;DHT22;4969;52.304;4.968;2024-03-29T08:59:49;17.35;55.77
9861;DHT22;4969;52.304;4.968;2024-03-29T09:02:15;17.06;55.05
9861;DHT22;4969;52.304;4.968;2024-03-29T09:04:42;17.06;56.04
9861;DHT22;4969;52.304;4.968;2024-03-29T09:07:08;17.10;55.88
9861;DHT22;4969;52.304;4.968;2024-03-29T09:09:36;16.96;53.01
9861;DHT22;4969;52.304;4.968;2024-03-29T09:12:06;16.83;57.46
9861;DHT22;4969;52.304;4.968;2024-03-29T09:14:33;16.59;57.51
9861;DHT22;4969;52.304;4.968;2024-03-29T09:16:59;16.23;55.25
9861;DHT22;4969;52.304;4.968;2024-03-29T09:19:27;16.47;55.06
9861;DHT22;4969;52.304;4.968;2024-03-29T09:21:55;16.51;57.04
9861;DHT22;4969;52.304;4.968;2024-03-29T09:24:22;16.93;57.71
9861;DHT22;4969;52.304;4.968;2024-03-29T09:26:52;17.44;55.79
9861;DHT22;4969;52.304;4.968;2024-03-29T09:29:18;17.72;55.15
9861;DHT22;4969;52.304;4.968;2024-03-29T09:31:46;17.28;56.97
9861;DHT22;4969;52.304;4.968;2024-03-29T09:34:12;17.71;56.42
9861;DHT22;4969;52.304;4.968;2024-03-29T09:36:40;17.13;54.00
9861;DHT22;4969;52.304;4.968;2024-03-29T09:39:06;17.20;55.61
9861;DHT22;4969;52.304;4.968;2024-03-29T09:41:34;17.37;56.66
9861;DHT22;4969;52.304;4.968;2024-03-29T09:44:05;17.55;56.45
9861;DHT22;4969;52.304;4.968;2024-03-29T09:46:33;17.14;57.01
9861;DHT22;4969;52.304;4.968;2024-03-29T09:49:01;17.52;55.99
9861;DHT22;4969;52.304;4.968;2024-03-29T09:51:29;17.38;55.33
9861;DHT22;4969;52.304;4.968;2024-03-29T09:53:57;17.34;56.21
9861;DHT22;4969;52.304;4.968;2024-03-29T09:56:26;17.90;55.44
9861;DHT22;4969;52.304;4.968;2024-03-29T09:58:53;17.58;56.13
9861;DHT22;4969;52.304;4.968;2024-03-29T10:01:21;17.68;53.30
9861;DHT22;4969;52.304;4.968;2024-03-29T10:03:49;17.44;55.62
9861;DHT22;4969;52.304;4.968;2024-03-29T10:06:17;17.57;55.46
9861;DHT22;4969;52.304;4.968;2024-03-29T10:08:45;17.59;54.12
9861;DHT22;4969;52.304;4.968;2024-03-29T10:11:12;18.04;55.91
9861;DHT22;4969;52.304;4.968;2024-03-29T10:13:42;18.24;52.66
9861;DHT22;4969;52.304;4.968;2024-03-29T10:16:09;18.34;54.81
9861;DHT22;4969;52.304;4.968;2024-03-29T10:18:40;18.83;53.38
9861;DHT22;4969;52.304;4.968;2024-03-29T10:21:08;18.52;53.57
9861;DHT22;4969;52.304;4.968;2024-03-29T10:23:36;18.72;53.35
9861;DHT22;4969;52.304;4.968;2024-03-29T10:26:03;18.61;54.18
9861;DHT22;4969;52.304;4.968;2024-03-29T10:28:31;18.13;51.94
9861;DHT22;4969;52.304;4.968;2024-03-29T10:30:58;18.52;55.23
9861;DHT22;4969;52.304;4.968;2024-03-29T10:33:27;18.38;50.79
9861;DHT22;4969;52.304;4.968;2024-03-29T10:35:56;18.17;54.41
9861;DHT22;4969;52.304;4.968;2024-03-29T10:38:24;18.82;53.99
9861;DHT22;4969;52.304;4.968;2024-03-29T10:40:51;18.59;52.40
9861;DHT22;4969;52.304;4.968;2024-03-29T10:43:19;18.93;51.99
9861;DHT22;4969;52.304;4.968;2024-03-29T10:45:46;19.16;53.12
9861;DHT22;4969;52.304;4.968;2024-03-29T10:48:15;18.79;52.12
9861;DHT22;4969;52.304;4.968;2024-03-29T10:50:42;18.47;52.52
9861;DHT22;4969;52.304;4.968;2024-03-29T10:53:12;18.14;51.46
9861;DHT22;4969;52.304;4.968;2024-03-29T10:55:41;18.44;53.58
9861;DHT22;4969;52.304;4.968;2024-03-29T10:58:10;18.67;53.07
9861;DHT22;4969;52.304;4.968;2024-03-29T11:00:38;17.48;53.39
9861;DHT22;4969;52.304;4.968;2024-03-29T11:03:12;17.47;57.54
9861;DHT22;4969;52.304;4.968;2024-03-29T11:05:45;17.85;53.04
9861;DHT22;4969;52.304;4.968;2024-03-29T11:08:19;16.82;54.30
9861;DHT22;4969;52.304;4.968;2024-03-29T11:10:49;17.38;57.89
9861;DHT22;4969;52.304;4.968;2024-03-29T11:13:20;17.24;55.61
9861;DHT22;4969;52.304;4.968;2024-03-29T11:15:50;17.64;58.39
9861;DHT22;4969;52.304;4.968;2024-03-29T11:18:17;18.21;56.86
9861;DHT22;4969;52.304;4.968;2024-03-29T11:20:45;18.50;55.21
9861;DHT22;4969;52.304;4.968;2024-03-29T11:23:18;18.45;54.59
9861;DHT22;4969;52.304;4.968;2024-03-29T11:25:48;18.30;54.73
9861;DHT22;4969;52.304;4.968;2024-03-29T11:28:21;18.52;55.58
9861;DHT22;4969;52.304;4.968;2024-03-29T11:30:50;17.74;56.91
9861;DHT22;4969;52.304;4.968;2024-03-29T11:33:28;17.58;55.92
9861;DHT22;4969;52.304;4.968;2024-03-29T11:35:55;16.96;57.29
9861;DHT22;4969;52.304;4.968;2024-03-29T11:38:29;17.79;58.33
9861;DHT22;4969;52.304;4.968;2024-03-29T11:41:06;18.09;52.57
9861;DHT22;4969;52.304;4.968;2024-03-29T11:43:34;18.89;55.32
9861;DHT22;4969;52.304;4.968;2024-03-29T11:46:02;19.14;55.86
9861;DHT22;4969;52.304;4.968;2024-03-29T11:48:30;18.23;55.10
9861;DHT22;4969;52.304;4.968;2024-03-29T11:50:58;18.58;53.04
9861;DHT22;4969;52.304;4.968;2024-03-29T11:53:26;19.26;55.25
9861;DHT22;4969;52.304;4.968;2024-03-29T11:55:54;18.97;53.95
9861;DHT22;4969;52.304;4.968;2024-03-29T11:58:22;19.82;52.67
9861;DHT22;4969;52.304;4.968;2024-03-29T12:00:49;19.42;54.70
9861;DHT22;4969;52.304;4.968;2024-03-29T12:03:16;19.90;51.62
9861;DHT22;4969;52.304;4.968;2024-03-29T12:05:43;19.47;48.30
9861;DHT22;4969;52.304;4.968;2024-03-29T12:08:09;18.83;49.11
9861;DHT22;4969;52.304;4.968;2024-03-29T12:10:37;18.58;51.38
9861;DHT22;4969;52.304;4.968;2024-03-29T12:13:05;18.95;53.01
9861;DHT22;4969;52.304;4.968;2024-03-29T12:15:32;19.19;54.87
9861;DHT22;4969;52.304;4.968;2024-03-29T12:17:59;19.30;54.39
9861;DHT22;4969;52.304;4.968;2024-03-29T12:20:28;18.78;52.90
9861;DHT22;4969;52.304;4.968;2024-03-29T12:22:55;18.89;51.34
9861;DHT22;4969;52.304;4.968;2024-03-29T12:25:22;19.14;55.38
9861;DHT22;4969;52.304;4.968;2024-03-29T12:27:50;19.16;53.12
9861;DHT22;4969;52.304;4.968;2024-03-29T12:30:16;18.89;47.72
9861;DHT22;4969;52.304;4.968;2024-03-29T12:32:43;18.04;51.27
9861;DHT22;4969;52.304;4.968;2024-03-29T12:35:11;18.59;59.19
9861;DHT22;4969;52.304;4.968;2024-03-29T12:37:38;19.02;54.30
9861;DHT22;4969;52.304;4.968;2024-03-29T12:40:06;18.92;54.05
9861;DHT22;4969;52.304;4.968;2024-03-29T12:42:38;19.04;57.20
9861;DHT22;4969;52.304;4.968;2024-03-29T12:45:07;19.42;57.78
9861;DHT22;4969;52.304;4.968;2024-03-29T12:47:35;19.10;54.87
9861;DHT22;4969;52.304;4.968;2024-03-29T12:50:03;19.38;51.67
9861;DHT22;4969;52.304;4.968;2024-03-29T12:52:36;19.35;48.28
9861;DHT22;4969;52.304;4.968;2024-03-29T12:55:03;19.44;57.09
9861;DHT22;4969;52.304;4.968;2024-03-29T12:57:30;19.16;59.20
9861;DHT22;4969;52.304;4.968;2024-03-29T12:59:57;19.22;54.87
9861;DHT22;4969;52.304;4.968;2024-03-29T13:02:25;19.27;54.03
9861;DHT22;4969;52.304;4.968;2024-03-29T13:04:51;18.89;58.24
9861;DHT22;4969;52.304;4.968;2024-03-29T13:07:18;18.90;58.80
9861;DHT22;4969;52.304;4.968;2024-03-29T13:09:44;18.97;59.62
9861;DHT22;4969;52.304;4.968;2024-03-29T13:12:11;19.68;58.73
9861;DHT22;4969;52.304;4.968;2024-03-29T13:14:37;20.27;53.70
9861;DHT22;4969;52.304;4.968;2024-03-29T13:17:04;19.59;51.83
9861;DHT22;4969;52.304;4.968;2024-03-29T13:19:32;18.38;52.54
9861;DHT22;4969;52.304;4.968;2024-03-29T13:21:59;19.63;55.26
9861;DHT22;4969;52.304;4.968;2024-03-29T13:24:25;19.79;52.11
9861;DHT22;4969;52.304;4.968;2024-03-29T13:26:54;19.55;53.54
9861;DHT22;4969;52.304;4.968;2024-03-29T13:29:20;19.33;57.05
9861;DHT22;4969;52.304;4.968;2024-03-29T13:31:47;19.78;49.36
9861;DHT22;4969;52.304;4.968;2024-03-29T13:34:13;19.93;50.69
9861;DHT22;4969;52.304;4.968;2024-03-29T13:36:44;20.09;56.31
9861;DHT22;4969;52.304;4.968;2024-03-29T13:39:11;20.12;57.07
9861;DHT22;4969;52.304;4.968;2024-03-29T13:41:39;19.87;54.93
9861;DHT22;4969;52.304;4.968;2024-03-29T13:44:06;20.24;52.02
9861;DHT22;4969;52.304;4.968;2024-03-29T13:46:32;20.92;53.42
9861;DHT22;4969;52.304;4.968;2024-03-29T13:48:59;20.27;48.20
9861;DHT22;4969;52.304;4.968;2024-03-29T13:51:26;20.78;53.84
9861;DHT22;4969;52.304;4.968;2024-03-29T13:53:54;20.88;52.23
9861;DHT22;4969;52.304;4.968;2024-03-29T13:56:20;21.20;50.17
9861;DHT22;4969;52.304;4.968;2024-03-29T13:58:47;21.10;53.13
9861;DHT22;4969;52.304;4.968;2024-03-29T14:01:14;21.11;53.09
9861;DHT22;4969;52.304;4.968;2024-03-29T14:03:40;20.30;45.91
9861;DHT22;4969;52.304;4.968;2024-03-29T14:06:07;20.78;53.52
9861;DHT22;4969;52.304;4.968;2024-03-29T14:08:33;20.92;52.58
9861;DHT22;4969;52.304;4.968;2024-03-29T14:11:02;20.58;49.87
9861;DHT22;4969;52.304;4.968;2024-03-29T14:13:29;20.69;52.58
9861;DHT22;4969;52.304;4.968;2024-03-29T14:15:55;20.59;53.54
9861;DHT22;4969;52.304;4.968;2024-03-29T14:18:22;21.16;52.49
9861;DHT22;4969;52.304;4.968;2024-03-29T14:20:48;20.55;49.68
9861;DHT22;4969;52.304;4.968;2024-03-29T14:23:16;20.35;51.66
9861;DHT22;4969;52.304;4.968;2024-03-29T14:25:44;20.34;51.64
9861;DHT22;4969;52.304;4.968;2024-03-29T14:28:12;20.75;53.85
9861;DHT22;4969;52.304;4.968;2024-03-29T14:30:39;20.59;52.95
9861;DHT22;4969;52.304;4.968;2024-03-29T14:33:05;20.31;47.32
9861;DHT22;4969;52.304;4.968;2024-03-29T14:35:34;20.07;48.10
9861;DHT22;4969;52.304;4.968;2024-03-29T14:38:00;20.47;51.21
9861;DHT22;4969;52.304;4.968;2024-03-29T14:40:27;20.00;52.59
9861;DHT22;4969;52.304;4.968;2024-03-29T14:42:54;19.83;48.99
9861;DHT22;4969;52.304;4.968;2024-03-29T14:45:24;19.40;54.66
9861;DHT22;4969;52.304;4.968;2024-03-29T14:47:51;19.23;45.30
9861;DHT22;4969;52.304;4.968;2024-03-29T14:50:17;19.59;52.15
9861;DHT22;4969;52.304;4.968;2024-03-29T14:52:44;19.59;48.25
9861;DHT22;4969;52.304;4.968;2024-03-29T14:55:11;19.93;46.17
9861;DHT22;4969;52.304;4.968;2024-03-29T14:57:37;20.00;46.07
9861;DHT22;4969;52.304;4.968;2024-03-29T15:00:05;20.33;48.36
9861;DHT22;4969;52.304;4.968;2024-03-29T15:02:33;19.78;48.44
9861;DHT22;4969;52.304;4.968;2024-03-29T15:04:59;19.73;51.88
9861;DHT22;4969;52.304;4.968;2024-03-29T15:07:26;20.18;53.24
9861;DHT22;4969;52.304;4.968;2024-03-29T15:09:53;19.78;47.10
9861;DHT22;4969;52.304;4.968;2024-03-29T15:12:19;20.16;49.69
9861;DHT22;4969;52.304;4.968;2024-03-29T15:14:46;20.55;52.63
9861;DHT22;4969;52.304;4.968;2024-03-29T15:17:12;20.79;51.83
9861;DHT22;4969;52.304;4.968;2024-03-29T15:19:40;20.65;48.55
9861;DHT22;4969;52.304;4.968;2024-03-29T15:22:07;20.41;53.24
9861;DHT22;4969;52.304;4.968;2024-03-29T15:24:37;20.27;52.69
9861;DHT22;4969;52.304;4.968;2024-03-29T15:27:04;20.10;53.22
9861;DHT22;4969;52.304;4.968;2024-03-29T15:29:40;20.30;53.10
9861;DHT22;4969;52.304;4.968;2024-03-29T15:32:06;20.78;51.89
9861;DHT22;4969;52.304;4.968;2024-03-29T15:34:34;21.00;51.31
9861;DHT22;4969;52.304;4.968;2024-03-29T15:37:00;21.03;51.23
9861;DHT22;4969;52.304;4.968;2024-03-29T15:39:27;21.04;51.51
9861;DHT22;4969;52.304;4.968;2024-03-29T15:41:53;20.78;52.11
9861;DHT22;4969;52.304;4.968;2024-03-29T15:44:20;20.71;46.12
9861;DHT22;4969;52.304;4.968;2024-03-29T15:46:46;20.28;46.30
9861;DHT22;4969;52.304;4.968;2024-03-29T15:49:13;20.02;53.18
9861;DHT22;4969;52.304;4.968;2024-03-29T15:51:39;20.51;50.97
9861;DHT22;4969;52.304;4.968;2024-03-29T15:54:07;20.81;47.78
9861;DHT22;4969;52.304;4.968;2024-03-29T15:56:37;20.51;48.54
9861;DHT22;4969;52.304;4.968;2024-03-29T15:59:04;20.52;51.76
9861;DHT22;4969;52.304;4.968;2024-03-29T16:01:30;20.82;51.96